Time;durP1;ratioP1;P1;durP2;ratioP2;P2;SDS_P1;SDS_P2;PMS_P1;PMS_P2;Temp;Humidity;BMP_temperature;BMP_pressure;BME280_temperature;BME280_humidity;BME280_pressure;Samples;Min_cycle;Max_cycle;Signal;HPM_P1;HPM_P2
2024/01/16 00:01:43;;;;;;;183.55;50.72;;;;;;;;;;4993898;28;20172;-44
2024/01/16 00:04:10;;;;;;;180.27;49.28;;;;;;;;;;4993030;28;20258;-44
2024/01/16 00:06:39;;;;;;;181.80;49.80;;;;;;;;;;4993787;28;20169;-44
2024/01/16 00:09:05;;;;;;;182.82;50.00;;;;;;;;;;4993605;28;20600;-44
2024/01/16 00:11:31;;;;;;;181.27;49.67;;;;;;;;;;4993531;28;20177;-45
2024/01/16 00:13:57;;;;;;;154.00;44.03;;;;;;;;;;4993245;28;20800;-44
2024/01/16 00:16:23;;;;;;;133.23;40.50;;;;;;;;;;4993653;28;20191;-44
2024/01/16 00:18:49;;;;;;;178.97;49.90;;;;;;;;;;4993611;28;20459;-44
2024/01/16 00:21:15;;;;;;;183.47;51.27;;;;;;;;;;4993370;28;20404;-44
2024/01/16 00:23:41;;;;;;;183.77;53.13;;;;;;;;;;4992690;28;20463;-44
2024/01/16 00:26:06;;;;;;;183.70;51.00;;;;;;;;;;4991414;28;20428;-44
2024/01/16 00:28:32;;;;;;;182.93;50.30;;;;;;;;;;4989963;28;20903;-44
2024/01/16 00:30:58;;;;;;;184.55;51.58;;;;;;;;;;4988438;28;20786;-45
2024/01/16 00:33:27;;;;;;;185.25;50.88;;;;;;;;;;4986372;28;20606;-45
2024/01/16 00:35:53;;;;;;;184.23;51.10;;;;;;;;;;4993346;28;20181;-44
2024/01/16 00:38:19;;;;;;;185.13;51.53;;;;;;;;;;4993154;28;20192;-45
2024/01/16 00:40:46;;;;;;;187.57;52.70;;;;;;;;;;4993382;28;20409;-45
2024/01/16 00:43:12;;;;;;;186.35;51.50;;;;;;;;;;4992380;28;20169;-46
2024/01/16 00:45:40;;;;;;;169.93;49.85;;;;;;;;;;4988020;28;20173;-44
2024/01/16 00:48:06;;;;;;;185.20;50.58;;;;;;;;;;4992941;28;20177;-44
2024/01/16 00:50:33;;;;;;;133.52;42.65;;;;;;;;;;4992644;28;20615;-44
2024/01/16 00:52:59;;;;;;;184.63;50.42;;;;;;;;;;4990561;28;20645;-45
2024/01/16 00:55:24;;;;;;;185.00;50.80;;;;;;;;;;4992782;28;20224;-45
2024/01/16 00:57:52;;;;;;;185.43;50.93;;;;;;;;;;4992943;28;20946;-44
2024/01/16 01:00:18;;;;;;;184.20;49.97;;;;;;;;;;4992680;28;20495;-44
2024/01/16 01:02:44;;;;;;;191.65;55.25;;;;;;;;;;4992178;28;20657;-44
2024/01/16 01:05:10;;;;;;;185.85;50.80;;;;;;;;;;4992524;28;20210;-44
2024/01/16 01:07:36;;;;;;;184.80;50.50;;;;;;;;;;4990988;28;20227;-44
2024/01/16 01:10:02;;;;;;;184.43;50.60;;;;;;;;;;4989425;28;20216;-44
2024/01/16 01:12:29;;;;;;;186.73;52.03;;;;;;;;;;4987258;28;20416;-44
2024/01/16 01:14:54;;;;;;;185.43;50.60;;;;;;;;;;4987066;28;20747;-45
2024/01/16 01:17:20;;;;;;;185.95;50.83;;;;;;;;;;4989248;28;20268;-44
2024/01/16 01:19:46;;;;;;;174.20;49.20;;;;;;;;;;4987037;28;20185;-44
2024/01/16 01:22:12;;;;;;;187.95;52.85;;;;;;;;;;4992367;28;20425;-44
2024/01/16 01:24:38;;;;;;;155.37;49.07;;;;;;;;;;4991686;28;20789;-44
2024/01/16 01:27:06;;;;;;;185.63;52.70;;;;;;;;;;4992955;28;20791;-44
2024/01/16 01:29:32;;;;;;;187.55;53.17;;;;;;;;;;4992328;28;20971;-44
2024/01/16 01:31:58;;;;;;;184.60;52.73;;;;;;;;;;4992455;28;20255;-44
2024/01/16 01:34:24;;;;;;;182.55;50.83;;;;;;;;;;4990932;28;20458;-44
2024/01/16 01:36:50;;;;;;;185.23;52.20;;;;;;;;;;4990970;28;20272;-44
2024/01/16 01:39:15;;;;;;;188.23;52.42;;;;;;;;;;4990493;28;20416;-44
2024/01/16 01:41:41;;;;;;;184.47;51.30;;;;;;;;;;4987635;28;20723;-44
2024/01/16 01:44:15;;;;;;;185.95;51.70;;;;;;;;;;4991197;28;20489;-44
2024/01/16 01:46:41;;;;;;;186.80;52.92;;;;;;;;;;4989477;28;20692;-44
2024/01/16 01:49:07;;;;;;;186.88;51.95;;;;;;;;;;4991568;28;20185;-45
2024/01/16 01:51:34;;;;;;;186.57;52.58;;;;;;;;;;4991555;28;20169;-44
2024/01/16 01:54:01;;;;;;;186.20;51.38;;;;;;;;;;4991188;28;20208;-44
2024/01/16 01:56:27;;;;;;;185.15;50.90;;;;;;;;;;4992407;28;20231;-44
2024/01/16 01:58:54;;;;;;;186.25;51.10;;;;;;;;;;4992321;28;20181;-44
2024/01/16 02:01:21;;;;;;;185.43;51.40;;;;;;;;;;4991714;28;20231;-44
2024/01/16 02:03:48;;;;;;;187.02;52.45;;;;;;;;;;4994734;28;20263;-44
2024/01/16 02:06:17;;;;;;;184.93;52.30;;;;;;;;;;4995920;28;20173;-44
2024/01/16 02:08:45;;;;;;;184.40;51.47;;;;;;;;;;4995246;28;20169;-44
2024/01/16 02:11:11;;;;;;;184.63;51.05;;;;;;;;;;4996262;28;20189;-45
2024/01/16 02:13:37;;;;;;;185.50;50.95;;;;;;;;;;4995379;28;20406;-45
2024/01/16 02:16:03;;;;;;;185.57;51.63;;;;;;;;;;4996101;28;20296;-45
2024/01/16 02:18:29;;;;;;;186.00;51.90;;;;;;;;;;4996091;28;20169;-44
2024/01/16 02:20:58;;;;;;;185.93;51.88;;;;;;;;;;4996011;28;20179;-44
2024/01/16 02:23:27;;;;;;;187.55;53.38;;;;;;;;;;4995360;28;20233;-44
2024/01/16 02:25:53;;;;;;;185.63;51.35;;;;;;;;;;4995807;28;20185;-44
2024/01/16 02:28:19;;;;;;;185.57;51.28;;;;;;;;;;4995896;28;20172;-44
2024/01/16 02:30:46;;;;;;;187.47;52.60;;;;;;;;;;4995750;28;20165;-44
2024/01/16 02:33:12;;;;;;;184.48;50.88;;;;;;;;;;4995055;28;20435;-44
2024/01/16 02:35:38;;;;;;;186.95;52.53;;;;;;;;;;4995536;28;20197;-45
2024/01/16 02:38:04;;;;;;;186.43;51.65;;;;;;;;;;4995564;28;20255;-45
2024/01/16 02:40:30;;;;;;;186.27;51.25;;;;;;;;;;4995655;28;20204;-44
2024/01/16 02:42:56;;;;;;;186.00;51.37;;;;;;;;;;4995029;28;20177;-44
2024/01/16 02:45:22;;;;;;;186.47;52.33;;;;;;;;;;4995231;28;20481;-44
2024/01/16 02:47:48;;;;;;;187.52;51.72;;;;;;;;;;4995462;28;20400;-44
2024/01/16 02:50:14;;;;;;;187.60;52.90;;;;;;;;;;4995502;28;20161;-44
2024/01/16 02:52:40;;;;;;;190.30;54.78;;;;;;;;;;4994826;28;20165;-45
2024/01/16 02:55:07;;;;;;;185.75;51.35;;;;;;;;;;4995219;28;20768;-44
2024/01/16 02:57:33;;;;;;;185.65;51.47;;;;;;;;;;4995407;28;20303;-44
2024/01/16 02:59:59;;;;;;;184.23;50.83;;;;;;;;;;4995125;28;20206;-45
2024/01/16 03:02:25;;;;;;;184.73;50.70;;;;;;;;;;4995019;28;20411;-45
2024/01/16 03:04:51;;;;;;;185.07;50.65;;;;;;;;;;4994709;28;20488;-44
2024/01/16 03:07:17;;;;;;;184.25;50.40;;;;;;;;;;4995158;28;20259;-45
2024/01/16 03:09:43;;;;;;;186.80;51.15;;;;;;;;;;4995229;28;20196;-44
2024/01/16 03:12:09;;;;;;;185.00;50.47;;;;;;;;;;4995053;28;20255;-45
2024/01/16 03:14:36;;;;;;;183.83;50.47;;;;;;;;;;4994016;28;20428;-45
2024/01/16 03:17:03;;;;;;;186.98;51.90;;;;;;;;;;4995014;28;20402;-45
2024/01/16 03:19:29;;;;;;;187.57;52.13;;;;;;;;;;4994866;28;20175;-44
2024/01/16 03:21:55;;;;;;;186.75;51.35;;;;;;;;;;4994897;28;20175;-44
2024/01/16 03:24:21;;;;;;;187.35;55.15;;;;;;;;;;4993848;28;20201;-44
2024/01/16 03:26:47;;;;;;;143.68;48.05;;;;;;;;;;4994664;28;20240;-44
2024/01/16 03:29:13;;;;;;;145.27;48.20;;;;;;;;;;4994672;28;20536;-44
2024/01/16 03:31:39;;;;;;;136.98;46.10;;;;;;;;;;4994655;28;20409;-44
2024/01/16 03:34:05;;;;;;;136.00;45.33;;;;;;;;;;4993492;28;20224;-45
2024/01/16 03:36:31;;;;;;;127.75;44.85;;;;;;;;;;4994438;28;20852;-44
2024/01/16 03:38:57;;;;;;;118.63;43.27;;;;;;;;;;4994464;28;20212;-45
2024/01/16 03:41:23;;;;;;;102.57;41.70;;;;;;;;;;4994586;28;20912;-44
2024/01/16 03:43:49;;;;;;;69.40;33.17;;;;;;;;;;4993461;28;20962;-45
2024/01/16 03:46:15;;;;;;;120.07;43.80;;;;;;;;;;4994380;28;20440;-44
2024/01/16 03:48:41;;;;;;;131.97;45.60;;;;;;;;;;4994422;28;20397;-45
2024/01/16 03:51:06;;;;;;;131.60;48.20;;;;;;;;;;4994251;28;20687;-44
2024/01/16 03:53:33;;;;;;;108.97;43.50;;;;;;;;;;4993533;28;20435;-44
2024/01/16 03:55:59;;;;;;;124.85;45.13;;;;;;;;;;4994108;28;20423;-44
2024/01/16 03:58:25;;;;;;;47.53;31.63;;;;;;;;;;4994460;28;20618;-44
2024/01/16 04:00:51;;;;;;;55.07;32.60;;;;;;;;;;4994366;28;20235;-44
2024/01/16 04:03:17;;;;;;;55.42;32.88;;;;;;;;;;4993322;28;20927;-44
2024/01/16 04:05:43;;;;;;;61.20;32.92;;;;;;;;;;4994209;28;20177;-44
2024/01/16 04:08:09;;;;;;;52.97;33.30;;;;;;;;;;4994088;28;20173;-45
2024/01/16 04:10:35;;;;;;;45.20;31.67;;;;;;;;;;4994088;28;20463;-45
2024/01/16 04:13:01;;;;;;;47.50;32.38;;;;;;;;;;4993282;28;20409;-45
2024/01/16 04:15:28;;;;;;;34.60;25.58;;;;;;;;;;4993802;28;20212;-44
2024/01/16 04:17:54;;;;;;;44.15;30.77;;;;;;;;;;4993777;28;20177;-44
2024/01/16 04:20:20;;;;;;;18.53;16.70;;;;;;;;;;4993743;28;20218;-44
2024/01/16 04:22:46;;;;;;;48.65;32.45;;;;;;;;;;4993133;28;20396;-44
2024/01/16 04:25:12;;;;;;;38.80;28.67;;;;;;;;;;4989120;28;20747;-44
2024/01/16 04:27:39;;;;;;;160.23;53.47;;;;;;;;;;4993300;28;20886;-45
2024/01/16 04:30:05;;;;;;;90.93;36.60;;;;;;;;;;4993543;28;20424;-45
2024/01/16 04:32:31;;;;;;;30.80;27.95;;;;;;;;;;4989271;28;20180;-44
2024/01/16 04:34:57;;;;;;;30.53;27.27;;;;;;;;;;4991649;28;20208;-44
2024/01/16 04:37:23;;;;;;;28.80;25.23;;;;;;;;;;4993345;28;20417;-44
2024/01/16 04:39:50;;;;;;;183.60;50.03;;;;;;;;;;4993145;28;20438;-44
2024/01/16 04:42:17;;;;;;;187.55;52.65;;;;;;;;;;4992918;28;20641;-44
2024/01/16 04:44:43;;;;;;;186.63;50.25;;;;;;;;;;4986131;28;20731;-44
2024/01/16 04:47:09;;;;;;;187.18;51.63;;;;;;;;;;4993079;28;20390;-44
2024/01/16 04:49:35;;;;;;;186.98;50.28;;;;;;;;;;4991809;28;20181;-44
2024/01/16 04:52:01;;;;;;;93.57;43.00;;;;;;;;;;4990371;28;20174;-45
2024/01/16 04:54:27;;;;;;;40.40;33.10;;;;;;;;;;4991975;28;20456;-44
2024/01/16 04:56:53;;;;;;;18.55;15.18;;;;;;;;;;4988456;28;20428;-44
2024/01/16 04:59:19;;;;;;;23.70;18.73;;;;;;;;;;4986940;28;20181;-44
2024/01/16 05:01:45;;;;;;;28.10;23.90;;;;;;;;;;4985224;28;20477;-44
2024/01/16 05:04:11;;;;;;;20.53;18.73;;;;;;;;;;4991791;28;20474;-45
2024/01/16 05:06:37;;;;;;;23.07;21.17;;;;;;;;;;4992837;28;20444;-44
2024/01/16 05:09:03;;;;;;;22.63;20.63;;;;;;;;;;4992810;28;20423;-44
2024/01/16 05:11:29;;;;;;;22.10;20.10;;;;;;;;;;4992618;28;20404;-44
2024/01/16 05:13:57;;;;;;;43.28;31.63;;;;;;;;;;4992022;28;20568;-44
2024/01/16 05:16:27;;;;;;;25.45;23.08;;;;;;;;;;4992566;28;20644;-44
2024/01/16 05:18:53;;;;;;;16.73;15.23;;;;;;;;;;4991268;28;20195;-44
2024/01/16 05:21:20;;;;;;;16.67;15.13;;;;;;;;;;4992467;28;20185;-44
2024/01/16 05:23:46;;;;;;;19.42;17.73;;;;;;;;;;4991497;28;20205;-44
2024/01/16 05:26:12;;;;;;;18.95;17.10;;;;;;;;;;4992346;28;20188;-44
2024/01/16 05:28:40;;;;;;;21.60;19.73;;;;;;;;;;4992658;28;20188;-44
2024/01/16 05:31:07;;;;;;;19.02;17.08;;;;;;;;;;4991227;28;20893;-45
2024/01/16 05:33:34;;;;;;;28.02;25.42;;;;;;;;;;4991364;28;20320;-44
2024/01/16 05:36:00;;;;;;;59.00;35.37;;;;;;;;;;4991587;28;20259;-44
2024/01/16 05:38:26;;;;;;;19.65;17.90;;;;;;;;;;4991961;28;20462;-44
2024/01/16 05:40:52;;;;;;;80.53;36.78;;;;;;;;;;4986335;28;20181;-44
2024/01/16 05:43:18;;;;;;;186.70;51.73;;;;;;;;;;4983914;28;20665;-44
2024/01/16 05:45:44;;;;;;;143.53;45.57;;;;;;;;;;4992142;28;20817;-45
2024/01/16 05:48:10;;;;;;;34.43;30.80;;;;;;;;;;4989423;28;20767;-45
2024/01/16 05:50:37;;;;;;;122.95;37.28;;;;;;;;;;4991522;28;20403;-44
2024/01/16 05:53:03;;;;;;;163.50;49.72;;;;;;;;;;4988234;28;20255;-44
2024/01/16 05:55:32;;;;;;;151.55;50.05;;;;;;;;;;4972019;28;20192;-44
2024/01/16 05:57:59;;;;;;;187.52;51.35;;;;;;;;;;4973023;28;20269;-44
2024/01/16 06:00:25;;;;;;;188.00;51.60;;;;;;;;;;4972853;28;20248;-45
2024/01/16 06:02:51;;;;;;;188.40;53.33;;;;;;;;;;4972304;28;20256;-44
2024/01/16 06:05:17;;;;;;;185.17;51.60;;;;;;;;;;4972608;28;20479;-44
2024/01/16 06:07:43;;;;;;;185.90;50.97;;;;;;;;;;4972939;28;20437;-44
2024/01/16 06:10:09;;;;;;;187.33;52.30;;;;;;;;;;4972883;28;20912;-44
2024/01/16 06:12:35;;;;;;;195.18;59.40;;;;;;;;;;4972219;28;20431;-44
2024/01/16 06:15:01;;;;;;;187.23;51.40;;;;;;;;;;4972710;28;20197;-44
2024/01/16 06:17:27;;;;;;;188.65;52.95;;;;;;;;;;4972737;28;20193;-44
2024/01/16 06:19:53;;;;;;;186.50;51.67;;;;;;;;;;4972712;28;20178;-44
2024/01/16 06:22:19;;;;;;;187.77;52.07;;;;;;;;;;4972704;28;20421;-45
2024/01/16 06:24:45;;;;;;;188.73;52.37;;;;;;;;;;4972125;28;20464;-45
2024/01/16 06:27:14;;;;;;;189.07;53.00;;;;;;;;;;4972656;28;20817;-45
2024/01/16 06:29:39;;;;;;;188.05;52.20;;;;;;;;;;4972837;28;20405;-44
2024/01/16 06:32:05;;;;;;;187.07;51.50;;;;;;;;;;4972696;28;20590;-45
2024/01/16 06:34:31;;;;;;;189.67;53.10;;;;;;;;;;4971740;28;20847;-44
2024/01/16 06:36:57;;;;;;;188.65;52.50;;;;;;;;;;4972580;28;20437;-45
2024/01/16 06:39:23;;;;;;;187.77;51.25;;;;;;;;;;4972523;28;20673;-44
2024/01/16 06:41:49;;;;;;;187.53;51.80;;;;;;;;;;4972728;28;20182;-45
2024/01/16 06:44:15;;;;;;;189.23;52.60;;;;;;;;;;4971733;28;20463;-44
2024/01/16 06:46:41;;;;;;;188.77;51.97;;;;;;;;;;4982700;28;20411;-44
2024/01/16 06:49:07;;;;;;;182.73;54.73;;;;;;;;;;4994446;28;20466;-44
2024/01/16 06:51:33;;;;;;;190.15;52.22;;;;;;;;;;4995696;28;20479;-44
2024/01/16 06:53:59;;;;;;;189.80;52.47;;;;;;;;;;4994665;28;20244;-44
2024/01/16 06:56:25;;;;;;;188.67;52.03;;;;;;;;;;4995316;28;20415;-45
2024/01/16 06:58:51;;;;;;;188.60;51.22;;;;;;;;;;4995333;28;20408;-44
2024/01/16 07:01:17;;;;;;;187.70;51.07;;;;;;;;;;4995332;28;20645;-44
2024/01/16 07:03:43;;;;;;;186.87;51.00;;;;;;;;;;4994392;28;20832;-44
2024/01/16 07:06:09;;;;;;;188.23;51.50;;;;;;;;;;4995265;28;20915;-44
2024/01/16 07:08:35;;;;;;;188.60;52.25;;;;;;;;;;4995192;28;21028;-44
2024/01/16 07:11:01;;;;;;;187.07;51.25;;;;;;;;;;4995131;28;20244;-44
2024/01/16 07:13:27;;;;;;;187.33;52.20;;;;;;;;;;4994322;28;20320;-44
2024/01/16 07:15:53;;;;;;;152.60;49.60;;;;;;;;;;4995080;28;20406;-44
2024/01/16 07:18:19;;;;;;;189.83;52.97;;;;;;;;;;4994792;28;20400;-45
2024/01/16 07:20:46;;;;;;;185.97;52.27;;;;;;;;;;4992730;28;20434;-44
2024/01/16 07:23:12;;;;;;;187.75;52.25;;;;;;;;;;4992627;28;20790;-44
2024/01/16 07:25:39;;;;;;;185.65;51.13;;;;;;;;;;4994713;28;20273;-44
2024/01/16 07:28:05;;;;;;;187.57;52.40;;;;;;;;;;4994301;28;20692;-44
2024/01/16 07:30:31;;;;;;;189.18;53.65;;;;;;;;;;4997054;28;20183;-44
2024/01/16 07:32:57;;;;;;;187.03;52.70;;;;;;;;;;4992695;28;20546;-44
2024/01/16 07:35:23;;;;;;;187.82;53.20;;;;;;;;;;4987338;28;20494;-44
2024/01/16 07:37:49;;;;;;;188.00;53.00;;;;;;;;;;4987146;28;20208;-44
2024/01/16 07:40:16;;;;;;;192.73;55.90;;;;;;;;;;4988949;28;20253;-44
2024/01/16 07:42:42;;;;;;;195.88;58.08;;;;;;;;;;4987218;28;20410;-46
2024/01/16 07:45:09;;;;;;;190.13;53.47;;;;;;;;;;4990936;28;20213;-45
2024/01/16 07:47:36;;;;;;;188.55;53.70;;;;;;;;;;4994269;28;20788;-45
2024/01/16 07:50:02;;;;;;;188.85;52.65;;;;;;;;;;4993706;28;20176;-45
2024/01/16 07:52:28;;;;;;;188.63;53.17;;;;;;;;;;4992198;28;20756;-44
2024/01/16 07:54:54;;;;;;;188.45;53.25;;;;;;;;;;4993066;28;20673;-45
2024/01/16 07:57:20;;;;;;;188.52;53.33;;;;;;;;;;4994110;28;20181;-45
2024/01/16 07:59:47;;;;;;;191.37;55.30;;;;;;;;;;4991139;28;20671;-44
2024/01/16 08:02:13;;;;;;;192.45;54.60;;;;;;;;;;4992020;28;20908;-45
2024/01/16 08:04:38;;;;;;;191.13;54.77;;;;;;;;;;4987469;28;20213;-44
2024/01/16 08:07:04;;;;;;;189.43;54.10;;;;;;;;;;4993969;28;20420;-44
2024/01/16 08:09:30;;;;;;;189.43;53.60;;;;;;;;;;4993442;28;20427;-44
2024/01/16 08:11:57;;;;;;;150.43;51.00;;;;;;;;;;4991344;28;20420;-44
2024/01/16 08:14:23;;;;;;;188.73;60.83;;;;;;;;;;4990221;28;20443;-44
2024/01/16 08:16:49;;;;;;;190.37;56.40;;;;;;;;;;4991785;28;20189;-44
2024/01/16 08:19:15;;;;;;;194.57;58.60;;;;;;;;;;4992269;28;20420;-44
2024/01/16 08:21:41;;;;;;;187.97;53.87;;;;;;;;;;4993116;28;20496;-44
2024/01/16 08:24:07;;;;;;;191.35;55.72;;;;;;;;;;4990200;28;20466;-44
2024/01/16 08:26:33;;;;;;;195.40;56.87;;;;;;;;;;4992517;28;20652;-44
2024/01/16 08:28:59;;;;;;;194.63;57.40;;;;;;;;;;4990936;28;20416;-45
2024/01/16 08:31:25;;;;;;;193.45;56.40;;;;;;;;;;4985944;28;20223;-44
2024/01/16 08:33:50;;;;;;;193.47;57.30;;;;;;;;;;4992026;28;20204;-45
2024/01/16 08:36:16;;;;;;;189.33;55.80;;;;;;;;;;4992531;28;20415;-44
2024/01/16 08:38:42;;;;;;;190.13;56.17;;;;;;;;;;4992310;28;20436;-45
2024/01/16 08:41:08;;;;;;;200.10;62.07;;;;;;;;;;4989998;28;20502;-44
2024/01/16 08:43:34;;;;;;;196.50;59.55;;;;;;;;;;4988932;28;20579;-45
2024/01/16 08:46:00;;;;;;;193.30;57.22;;;;;;;;;;4991002;28;20260;-45
2024/01/16 08:48:26;;;;;;;193.93;58.67;;;;;;;;;;4992642;28;20177;-44
2024/01/16 08:50:54;;;;;;;195.33;61.37;;;;;;;;;;4987923;28;20185;-46
2024/01/16 08:53:20;;;;;;;204.25;65.72;;;;;;;;;;4992220;28;20412;-44
2024/01/16 08:55:46;;;;;;;193.48;58.95;;;;;;;;;;4993059;28;20179;-45
2024/01/16 08:58:12;;;;;;;195.00;59.58;;;;;;;;;;4993053;28;20180;-44
2024/01/16 09:00:37;;;;;;;197.10;62.93;;;;;;;;;;4992969;28;20184;-44
2024/01/16 09:03:04;;;;;;;194.38;57.58;;;;;;;;;;4992383;28;20585;-44
2024/01/16 09:05:30;;;;;;;196.90;59.35;;;;;;;;;;4992792;28;20247;-44
2024/01/16 09:07:56;;;;;;;194.13;58.57;;;;;;;;;;4992888;28;20210;-45
2024/01/16 09:10:22;;;;;;;192.43;57.90;;;;;;;;;;4992283;28;20445;-45
2024/01/16 09:12:48;;;;;;;197.97;62.17;;;;;;;;;;4990270;28;20427;-44
2024/01/16 09:15:15;;;;;;;196.18;60.35;;;;;;;;;;4989065;28;20484;-44
2024/01/16 09:17:41;;;;;;;198.55;64.35;;;;;;;;;;4990721;28;20201;-44
2024/01/16 09:20:07;;;;;;;195.10;61.00;;;;;;;;;;4990209;28;20629;-45
2024/01/16 09:22:33;;;;;;;187.32;66.30;;;;;;;;;;4985285;28;20466;-44
2024/01/16 09:24:59;;;;;;;55.13;47.57;;;;;;;;;;4992640;28;20212;-45
2024/01/16 09:27:27;;;;;;;54.00;49.00;;;;;;;;;;4992134;28;20474;-44
2024/01/16 09:29:53;;;;;;;48.83;44.10;;;;;;;;;;4992410;28;20172;-46
2024/01/16 09:32:19;;;;;;;136.73;53.33;;;;;;;;;;4992572;28;20542;-45
2024/01/16 09:34:45;;;;;;;192.57;60.57;;;;;;;;;;4991811;28;20432;-44
2024/01/16 09:37:14;;;;;;;196.30;62.50;;;;;;;;;;4992487;28;20408;-44
2024/01/16 09:39:41;;;;;;;194.68;60.67;;;;;;;;;;4992750;28;20557;-44
2024/01/16 09:42:07;;;;;;;200.75;68.70;;;;;;;;;;4992195;28;20185;-44
2024/01/16 09:44:34;;;;;;;191.70;59.05;;;;;;;;;;4991543;28;20204;-44
2024/01/16 09:47:01;;;;;;;195.10;61.35;;;;;;;;;;4987226;28;20173;-44
2024/01/16 09:49:27;;;;;;;194.70;61.15;;;;;;;;;;4985656;28;20184;-44
2024/01/16 09:51:53;;;;;;;27.67;25.85;;;;;;;;;;4992337;28;20537;-44
2024/01/16 09:54:19;;;;;;;28.15;26.38;;;;;;;;;;4991591;28;20280;-44
2024/01/16 09:56:48;;;;;;;76.25;38.42;;;;;;;;;;4992265;28;20957;-45
2024/01/16 09:59:18;;;;;;;195.20;69.07;;;;;;;;;;4992295;28;20183;-44
2024/01/16 10:01:44;;;;;;;197.70;70.80;;;;;;;;;;4992267;28;20181;-44
2024/01/16 10:04:10;;;;;;;143.40;56.88;;;;;;;;;;4991464;28;20208;-44
2024/01/16 10:06:38;;;;;;;199.98;70.63;;;;;;;;;;4992228;28;20223;-44
2024/01/16 10:09:04;;;;;;;158.57;65.57;;;;;;;;;;4990505;28;20199;-44
2024/01/16 10:11:31;;;;;;;68.60;63.03;;;;;;;;;;4988921;28;20545;-45
2024/01/16 10:13:59;;;;;;;57.75;54.60;;;;;;;;;;4987471;28;20241;-44
2024/01/16 10:16:44;;;;;;;55.15;51.83;;;;;;;;;;4991862;28;20577;-44
2024/01/16 10:19:10;;;;;;;55.03;52.03;;;;;;;;;;4992412;28;20647;-45
2024/01/16 10:21:36;;;;;;;48.77;46.10;;;;;;;;;;4992184;28;20173;-45
2024/01/16 10:24:13;;;;;;;45.58;43.22;;;;;;;;;;4993378;28;20494;-44
2024/01/16 10:26:39;;;;;;;39.55;37.45;;;;;;;;;;4995661;28;20223;-44
2024/01/16 10:29:05;;;;;;;49.60;47.10;;;;;;;;;;4994174;28;20184;-45
2024/01/16 10:31:31;;;;;;;47.85;45.33;;;;;;;;;;4995023;28;20416;-44
2024/01/16 10:33:57;;;;;;;51.55;48.58;;;;;;;;;;4995230;28;20201;-44
2024/01/16 10:36:25;;;;;;;56.47;53.27;;;;;;;;;;4995636;28;20177;-44
2024/01/16 10:38:57;;;;;;;49.92;47.13;;;;;;;;;;4995765;28;20774;-44
2024/01/16 10:41:25;;;;;;;53.20;50.08;;;;;;;;;;4995987;28;20228;-44
2024/01/16 10:44:04;;;;;;;49.45;46.75;;;;;;;;;;4995141;28;20201;-44
2024/01/16 10:46:30;;;;;;;54.50;51.53;;;;;;;;;;4995555;28;20249;-44
2024/01/16 10:49:03;;;;;;;49.40;46.70;;;;;;;;;;4995565;28;20260;-44
2024/01/16 10:51:30;;;;;;;42.50;40.20;;;;;;;;;;4995545;28;20435;-44
2024/01/16 10:53:59;;;;;;;47.53;44.72;;;;;;;;;;4994797;28;20753;-44
2024/01/16 10:56:27;;;;;;;52.08;48.92;;;;;;;;;;4995282;28;20195;-44
2024/01/16 10:59:00;;;;;;;53.60;49.47;;;;;;;;;;4995208;28;20173;-45
2024/01/16 11:01:27;;;;;;;54.20;50.60;;;;;;;;;;4995216;28;20662;-45
2024/01/16 11:03:56;;;;;;;60.17;56.03;;;;;;;;;;4994282;28;20205;-45
2024/01/16 11:06:22;;;;;;;111.95;62.33;;;;;;;;;;4995086;28;20168;-45
2024/01/16 11:08:49;;;;;;;58.58;54.47;;;;;;;;;;4995115;28;20252;-46
2024/01/16 11:11:15;;;;;;;168.18;65.93;;;;;;;;;;4995145;28;20837;-45
2024/01/16 11:13:44;;;;;;;208.80;69.00;;;;;;;;;;4994139;28;20196;-45
2024/01/16 11:16:11;;;;;;;209.32;69.85;;;;;;;;;;4994955;28;20650;-44
2024/01/16 11:18:37;;;;;;;210.02;69.10;;;;;;;;;;4994895;28;20178;-45
2024/01/16 11:21:08;;;;;;;205.73;72.05;;;;;;;;;;4994947;28;20175;-45
2024/01/16 11:23:35;;;;;;;208.75;72.70;;;;;;;;;;4994110;28;20251;-44
2024/01/16 11:26:21;;;;;;;206.25;70.20;;;;;;;;;;4994668;28;20231;-45
2024/01/16 11:28:47;;;;;;;211.65;71.20;;;;;;;;;;4994595;28;20234;-45
2024/01/16 11:31:32;;;;;;;211.20;73.88;;;;;;;;;;4994833;28;20173;-45
2024/01/16 11:33:59;;;;;;;210.98;71.10;;;;;;;;;;4992674;28;20230;-45
2024/01/16 11:36:44;;;;;;;209.30;71.20;;;;;;;;;;4994556;28;20180;-45
2024/01/16 11:39:11;;;;;;;207.90;70.65;;;;;;;;;;4994474;28;20169;-45
2024/01/16 11:41:53;;;;;;;210.43;72.90;;;;;;;;;;4994463;28;20176;-45
2024/01/16 11:44:46;;;;;;;207.98;70.45;;;;;;;;;;4993695;28;20228;-46
2024/01/16 11:47:16;;;;;;;207.57;69.90;;;;;;;;;;4993393;28;20195;-45
2024/01/16 11:49:42;;;;;;;208.18;71.53;;;;;;;;;;4994367;28;20163;-45
2024/01/16 11:52:08;;;;;;;59.57;53.60;;;;;;;;;;4994289;28;20176;-45
2024/01/16 11:54:34;;;;;;;45.13;42.53;;;;;;;;;;4993630;28;20426;-45
2024/01/16 11:57:00;;;;;;;56.65;53.20;;;;;;;;;;4993579;28;20432;-45
2024/01/16 11:59:38;;;;;;;53.07;50.00;;;;;;;;;;4991469;28;20211;-44
2024/01/16 12:02:06;;;;;;;45.65;43.15;;;;;;;;;;4994573;28;20416;-45
2024/01/16 12:04:32;;;;;;;42.03;39.80;;;;;;;;;;4993664;28;20205;-45
2024/01/16 12:06:59;;;;;;;42.90;40.60;;;;;;;;;;4994524;28;20264;-46
2024/01/16 12:09:28;;;;;;;36.58;34.47;;;;;;;;;;4994446;28;20178;-44
2024/01/16 12:11:58;;;;;;;33.00;31.15;;;;;;;;;;4994302;28;20169;-44
2024/01/16 12:14:24;;;;;;;31.45;29.65;;;;;;;;;;4993556;28;20703;-44
2024/01/16 12:16:50;;;;;;;24.88;23.35;;;;;;;;;;4994229;28;20567;-44
2024/01/16 12:19:16;;;;;;;24.70;23.10;;;;;;;;;;4994418;28;20208;-45
2024/01/16 12:21:43;;;;;;;26.33;24.70;;;;;;;;;;4994431;28;20177;-44
2024/01/16 12:24:10;;;;;;;24.58;22.88;;;;;;;;;;4993501;28;20459;-46
2024/01/16 12:26:36;;;;;;;26.60;24.80;;;;;;;;;;4994029;28;20220;-45
2024/01/16 12:29:02;;;;;;;72.93;40.38;;;;;;;;;;4994074;28;20215;-45
2024/01/16 12:31:29;;;;;;;206.02;71.28;;;;;;;;;;4993097;28;20181;-46
2024/01/16 12:34:07;;;;;;;208.75;70.70;;;;;;;;;;4992966;28;20665;-46
2024/01/16 12:36:34;;;;;;;208.50;71.28;;;;;;;;;;4992464;28;20177;-45
2024/01/16 12:39:00;;;;;;;208.75;70.03;;;;;;;;;;4993645;28;20187;-45
2024/01/16 12:41:28;;;;;;;211.93;72.13;;;;;;;;;;4993902;28;20724;-46
2024/01/16 12:43:54;;;;;;;211.43;73.32;;;;;;;;;;4993319;28;20209;-44
2024/01/16 12:46:20;;;;;;;207.57;69.45;;;;;;;;;;4993255;28;20176;-46
2024/01/16 12:48:49;;;;;;;204.75;65.22;;;;;;;;;;4993872;28;20252;-45
2024/01/16 12:51:24;;;;;;;208.93;71.88;;;;;;;;;;4993764;28;20248;-44
2024/01/16 12:53:50;;;;;;;207.32;69.47;;;;;;;;;;4992896;28;20197;-45
2024/01/16 12:56:20;;;;;;;208.00;70.45;;;;;;;;;;4993560;28;20171;-45
2024/01/16 12:58:46;;;;;;;208.95;71.18;;;;;;;;;;4993710;28;20575;-45
2024/01/16 13:01:21;;;;;;;209.65;71.90;;;;;;;;;;4994077;28;20177;-45
2024/01/16 13:03:47;;;;;;;212.38;73.00;;;;;;;;;;4993133;28;20210;-46
2024/01/16 13:06:18;;;;;;;209.40;71.10;;;;;;;;;;4993562;28;20186;-45
2024/01/16 13:08:44;;;;;;;208.30;69.70;;;;;;;;;;4993659;28;20190;-46
2024/01/16 13:11:10;;;;;;;188.73;66.37;;;;;;;;;;4993688;28;20672;-45
2024/01/16 13:13:37;;;;;;;209.48;71.88;;;;;;;;;;4992853;28;20767;-45
2024/01/16 13:16:05;;;;;;;207.18;69.60;;;;;;;;;;4993477;28;20539;-45
2024/01/16 13:18:31;;;;;;;30.73;28.45;;;;;;;;;;4993536;28;20164;-45
2024/01/16 13:20:58;;;;;;;29.60;27.70;;;;;;;;;;4993222;28;20623;-45
2024/01/16 13:23:25;;;;;;;145.38;55.03;;;;;;;;;;4992529;28;20193;-45
2024/01/16 13:25:51;;;;;;;202.45;66.18;;;;;;;;;;4992666;28;20206;-45
2024/01/16 13:28:18;;;;;;;202.57;65.80;;;;;;;;;;4993338;28;20215;-45
2024/01/16 13:30:44;;;;;;;204.52;67.63;;;;;;;;;;4993069;28;20656;-45
2024/01/16 13:33:10;;;;;;;208.85;70.88;;;;;;;;;;4990804;28;20178;-45
2024/01/16 13:35:39;;;;;;;205.38;67.35;;;;;;;;;;4992739;28;20165;-44
2024/01/16 13:38:05;;;;;;;205.27;68.93;;;;;;;;;;4993111;28;20215;-44
2024/01/16 13:40:31;;;;;;;204.70;67.55;;;;;;;;;;4992805;28;20197;-44
2024/01/16 13:42:57;;;;;;;206.25;71.78;;;;;;;;;;4992412;28;20175;-44
2024/01/16 13:45:23;;;;;;;201.97;68.77;;;;;;;;;;4993002;28;20744;-44
2024/01/16 13:47:49;;;;;;;201.70;68.20;;;;;;;;;;4992994;28;20822;-44
2024/01/16 13:50:17;;;;;;;201.32;69.97;;;;;;;;;;4992907;28;20602;-44
2024/01/16 13:52:43;;;;;;;208.93;75.80;;;;;;;;;;4992424;28;20211;-44
2024/01/16 13:55:09;;;;;;;203.18;71.65;;;;;;;;;;4993068;28;20204;-44
2024/01/16 13:57:36;;;;;;;199.82;65.70;;;;;;;;;;4993157;28;20753;-46
2024/01/16 14:00:03;;;;;;;207.70;74.53;;;;;;;;;;4995232;28;20643;-45
2024/01/16 14:02:30;;;;;;;207.80;74.28;;;;;;;;;;4996149;28;20173;-44
2024/01/16 14:04:56;;;;;;;203.60;67.53;;;;;;;;;;4996269;28;20193;-46
2024/01/16 14:07:22;;;;;;;204.63;67.97;;;;;;;;;;4996637;28;20166;-46